Detall de PIREP

Printer-friendly versionPDF version

[2010/01/16 08:37:00]
Flight IATA:CT3109
Pilot Number:011
Company ICAO:CAT
Aircraft Type:B463/A
PAX:100
Departing Airport: LEZG
Destination Airport: LIEA
Alternate Airport:LIEO
Online: VATSIM
Route:PONEN UN870 BCN UM601 DESOG
Flight Level:FL300
No Slew and time accel
No pause
Crash detect
Detect pilot in Cockpit between each 30 and 45 minutes
08:38 Zero fuel Weight: 83500 Lbs, Fuel Weight: 12425 Lbs
08:38 VATSIM:LEZG 160800Z 11007KT 9999 FEW060 04/03 Q1021
08:38 VATSIM:LIEA 160750Z 33003KT 300V360 9999 FEW020 11/09 Q1022
08:39 Parking Brakes off
08:49 Take-off
08:49 Take off Weight: 95467 Lbs
08:49 Wind: 093? @ 005 Knots Heading: 118?
08:49 POS N41? 39? 45?? W001? 01? 28??
08:49 Gear Up: 162 Knots
08:49 Flaps:3 at 162 Knots
08:49 Flaps:2 at 187 Knots
08:50 Flaps:1 at 208 Knots
08:50 Flaps:0 at 231 Knots
09:03 TOC
09:03 Fuel Weight: 9706 Lb
09:04 Wind:163?@001
Knots Heading: 090? Ground Speed: 402 Knots Altitude 30219 ft
09:19 Wind:314?@013 Knots Heading: 095? Ground Speed: 416 Knots Altitude 30219 ft
09:34 Wind:348?@010 Knots Heading: 096? Ground Speed: 408 Knots Altitude 30259 ft
09:40 TOD
09:40 Fuel Weight: 6309 Lb
09:49 Wind:345?@013 Knots Heading: 096? Ground Speed: 343 Knots Altitude 19173 ft
10:03 Flaps:1 at 219 Knots
10:04 Wind:321?@005 Knots Heading: 176? Ground Speed: 225 Knots Altitude 2801 ft
10:04 Flaps:2 at 214 Knots
10:04 Flaps:3 at 203 Knots
10:05 Flaps:4 at 191 Knots
10:05 Flaps:5 at 175 Knots
10:05 Gear Down: 173 Knots
10:06 Flaps:6 at 161 Knots
10:07 TouchDown:Rate -174 ft/min Speed: 129 Knots
10:07 VATSIM:LIEA 160920Z 32004KT 270V350 9999 FEW018TCU SCT020 13/10 Q1022
10:07 Land
10:07 Wind:318?@004 Knots
10:07 Heading: 152?
10:07 Flight Duration: 01:18
10:07 Landing Weight: 88642 Lbs
10:07 P
OS N40? 37? 36?? E008? 17? 17??
10:09 Parking brakes on
10:09 Block to Block Duration: 01:30
10:09 Final Fuel: 5046 Lbls
10:09 Spent Fuel: 7378 Lbls
10:09 Flight Length: 464 NM
10:09 TOD Land Length: 136 NM

Exportar CSV

Powered by Drupal - Modified by Danger4k